M I D A S
Marine Information and Data Acquisition System
Tripno 2285 of the Zeeleeuw from 2012-04-05 06:32:25 to 2012-04-05 14:15:10
Back to CruiseResearch ActivitiesStationsMapUnderway DataData graphs

EquipmentUnitsComment
TimeDGPSUTC
LatitudeDGPSDM.mWGS84
LongitudeDGPSDM.mWGS84
HeadingGyrodeg 
SOGDGPSknotsSpeed over ground
COGDGPSdegCourse over ground
DepthEcho soundermeters200 kHz
Missing or incorrect values are displayed as -999
Navigation data collected by the RV Zeeleeuw from 2012-04-05 06:34:02 to 2012-04-05 14:26:06
                                                                                    Next 1000 lines
Time Latitude Longitude Heading SOG COG Depth
2012-04-05 06:34:12 51°13.637 2°56.017 124.5 -999 191 -999
2012-04-05 06:34:17 51°13.637 2°56.017 123.1 -999 281 -999
2012-04-05 06:34:22 51°13.637 2°56.017 122.7 -999 256 -999
2012-04-05 06:34:27 51°13.637 2°56.017 122.2 -999 262 6.9
2012-04-05 06:34:32 51°13.637 2°56.017 121.5 -999 286 -999
2012-04-05 06:34:37 51°13.637 2°56.017 120.6 -999 242 -999
2012-04-05 06:34:42 51°13.637 2°56.017 119.8 -999 185 6.9
2012-04-05 06:34:47 51°13.637 2°56.017 119.1 0.1 166 -999
2012-04-05 06:34:52 51°13.636 2°56.017 118.4 0.1 160 -999
2012-04-05 06:34:57 51°13.636 2°56.017 117.6 0.2 151 6.9
2012-04-05 06:35:02 51°13.636 2°56.017 116.9 0.1 179 -999
2012-04-05 06:35:07 51°13.636 2°56.017 115.8 0.1 235 -999
2012-04-05 06:35:12 51°13.636 2°56.017 114.8 0.1 190 -999
2012-04-05 06:35:17 51°13.636 2°56.017 113.6 0.1 176 7.1
2012-04-05 06:35:22 51°13.635 2°56.017 112.7 0.1 189 -999
2012-04-05 06:35:27 51°13.635 2°56.017 111.6 0.1 202 6.9
2012-04-05 06:35:32 51°13.635 2°56.017 110.1 0.1 203 -999
2012-04-05 06:35:37 51°13.635 2°56.017 108.9 0.1 204 -999
2012-04-05 06:35:42 51°13.635 2°56.017 107.7 0.1 218 7
2012-04-05 06:35:47 51°13.634 2°56.016 106.8 0.1 217 -999
2012-04-05 06:35:52 51°13.634 2°56.016 105.5 0.1 235 -999
2012-04-05 06:35:57 51°13.634 2°56.016 104.7 0.2 262 -999
2012-04-05 06:36:02 51°13.634 2°56.015 103.9 0.5 279 -999
2012-04-05 06:36:07 51°13.635 2°56.013 103.2 1 283 -999
2012-04-05 06:36:12 51°13.635 2°56.009 103.1 1.6 279 7
2012-04-05 06:36:17 51°13.636 2°56.004 103 2.2 282 7.3
2012-04-05 06:36:22 51°13.637 2°55.999 103.2 2.7 282 -999
2012-04-05 06:36:27 51°13.638 2°55.992 104 3.1 283 4.8
2012-04-05 06:36:32 51°13.639 2°55.985 104.9 3.4 284 -999
2012-04-05 06:36:37 51°13.64 2°55.977 106.1 3.7 285 -999
2012-04-05 06:36:42 51°13.641 2°55.968 107 4 286 -999
2012-04-05 06:36:47 51°13.643 2°55.959 107.7 4.2 286 -999
2012-04-05 06:36:52 51°13.645 2°55.95 108.2 4.3 288 -999
2012-04-05 06:36:57 51°13.647 2°55.941 109.2 4.3 287 -999
2012-04-05 06:37:02 51°13.649 2°55.932 110.2 4.4 289 -999
2012-04-05 06:37:07 51°13.651 2°55.923 111.2 4.5 289 -999
2012-04-05 06:37:12 51°13.653 2°55.913 112.3 4.5 291 -999
2012-04-05 06:37:17 51°13.655 2°55.904 113.6 4.6 292 -999
2012-04-05 06:37:22 51°13.658 2°55.894 115 4.7 293 -999
2012-04-05 06:37:27 51°13.66 2°55.885 116.6 4.8 295 -999
2012-04-05 06:37:32 51°13.663 2°55.875 118.3 4.9 296 -999
2012-04-05 06:37:37 51°13.666 2°55.865 119.9 5 298 -999
2012-04-05 06:37:42 51°13.67 2°55.856 121.9 5.1 300 -999
2012-04-05 06:37:47 51°13.674 2°55.846 123.9 5.2 302 -999
2012-04-05 06:37:52 51°13.678 2°55.836 125.7 5.3 304 -999
2012-04-05 06:37:57 51°13.682 2°55.827 127.4 5.3 305 -999
2012-04-05 06:38:02 51°13.686 2°55.818 129 5.2 308 -999
2012-04-05 06:38:07 51°13.691 2°55.809 130.9 5.2 309 -999
2012-04-05 06:38:12 51°13.696 2°55.8 132.2 5.3 311 -999
2012-04-05 06:38:17 51°13.701 2°55.791 133.2 5.3 312 -999
2012-04-05 06:38:22 51°13.706 2°55.782 134 5.3 313 -999
2012-04-05 06:38:27 51°13.711 2°55.774 134.5 5.2 313 -999
2012-04-05 06:38:32 51°13.716 2°55.766 134.8 5.3 314 -999
2012-04-05 06:38:37 51°13.721 2°55.757 135.1 5.4 314 -999
2012-04-05 06:38:42 51°13.726 2°55.749 135.6 5.4 315 -999
2012-04-05 06:38:47 51°13.731 2°55.74 136.1 5.5 314 -999
2012-04-05 06:38:52 51°13.737 2°55.731 136.6 5.5 315 -999
2012-04-05 06:38:57 51°13.742 2°55.722 137.4 5.5 316 -999
2012-04-05 06:39:02 51°13.747 2°55.714 138.5 5.5 317 -999
2012-04-05 06:39:07 51°13.753 2°55.706 139.6 5.5 317 -999
2012-04-05 06:39:12 51°13.759 2°55.698 140.8 5.5 318 -999
2012-04-05 06:39:17 51°13.765 2°55.69 141.9 5.5 319 -999
2012-04-05 06:39:22 51°13.77 2°55.683 143.2 5.5 320 -999
2012-04-05 06:39:27 51°13.776 2°55.675 144.5 5.5 322 -999
2012-04-05 06:39:32 51°13.783 2°55.668 146.1 5.5 323 -999
2012-04-05 06:39:37 51°13.789 2°55.661 148.2 5.5 326 -999
2012-04-05 06:39:42 51°13.795 2°55.654 150.6 5.5 328 -999
2012-04-05 06:39:47 51°13.802 2°55.648 152.6 5.5 331 -999
2012-04-05 06:39:52 51°13.809 2°55.643 154.8 5.5 334 -999
2012-04-05 06:39:57 51°13.816 2°55.638 157.2 5.5 335 -999
2012-04-05 06:40:02 51°13.823 2°55.633 159.1 5.5 337 -999
2012-04-05 06:40:07 51°13.83 2°55.629 160.9 5.4 339 -999
2012-04-05 06:40:12 51°13.837 2°55.625 162.5 5.2 341 -999
2012-04-05 06:40:17 51°13.844 2°55.622 164.3 5.2 343 -999
2012-04-05 06:40:22 51°13.85 2°55.619 166.3 5.1 345 -999
2012-04-05 06:40:27 51°13.857 2°55.616 168 5 346 -999
2012-04-05 06:40:32 51°13.864 2°55.613 169.4 5 347 -999
2012-04-05 06:40:37 51°13.87 2°55.611 170.5 4.9 347 -999
2012-04-05 06:40:42 51°13.877 2°55.609 171.4 4.8 348 -999
2012-04-05 06:40:47 51°13.883 2°55.607 172.9 4.7 350 -999
2012-04-05 06:40:52 51°13.89 2°55.605 175 4.6 352 -999
2012-04-05 06:40:57 51°13.896 2°55.604 177.3 4.4 354 -999
2012-04-05 06:41:02 51°13.901 2°55.604 179.7 4.2 356 -999
2012-04-05 06:41:07 51°13.907 2°55.603 182 4.1 357 -999
2012-04-05 06:41:12 51°13.913 2°55.603 184.4 4 359 -999
2012-04-05 06:41:17 51°13.918 2°55.603 186.8 3.9 1 -999
2012-04-05 06:41:22 51°13.923 2°55.604 189.5 3.7 3 -999
2012-04-05 06:41:27 51°13.928 2°55.604 192.4 3.6 6 -999
2012-04-05 06:41:32 51°13.933 2°55.605 195.4 3.5 7 -999
2012-04-05 06:41:37 51°13.938 2°55.606 198.6 3.4 11 -999
2012-04-05 06:41:42 51°13.942 2°55.608 201.9 3.3 14 -999
2012-04-05 06:41:47 51°13.946 2°55.61 204.9 3.2 18 -999
2012-04-05 06:41:52 51°13.95 2°55.613 208.2 3.1 21 -999
2012-04-05 06:41:57 51°13.954 2°55.615 211.2 3.1 23 -999
2012-04-05 06:42:02 51°13.958 2°55.618 214.2 3 25 -999
2012-04-05 06:42:07 51°13.962 2°55.621 216.9 2.8 28 -999
2012-04-05 06:42:12 51°13.965 2°55.624 219.5 2.7 29 -999
2012-04-05 06:42:17 51°13.968 2°55.627 222 2.6 32 -999
2012-04-05 06:42:22 51°13.971 2°55.63 224.4 2.5 34 -999
2012-04-05 06:42:27 51°13.974 2°55.633 226.7 2.4 35 -999
2012-04-05 06:42:32 51°13.976 2°55.636 228.8 2.2 35 -999
2012-04-05 06:42:37 51°13.978 2°55.639 230.6 1.8 38 -999
2012-04-05 06:42:42 51°13.98 2°55.64 232.4 1.3 31 -999
2012-04-05 06:42:47 51°13.981 2°55.641 235.2 0.7 25 -999
2012-04-05 06:42:52 51°13.981 2°55.64 238.5 0.5 336 9.6
2012-04-05 06:42:57 51°13.981 2°55.639 243.5 0.6 285 -999
2012-04-05 06:43:02 51°13.982 2°55.637 249.4 1.1 276 -999
2012-04-05 06:43:07 51°13.982 2°55.634 256.1 1.5 274 9.5
2012-04-05 06:43:12 51°13.982 2°55.629 263 1.8 278 9.5
2012-04-05 06:43:17 51°13.983 2°55.625 268.6 2.2 282 9.6
2012-04-05 06:43:22 51°13.984 2°55.619 276.8 2.5 288 9.6
2012-04-05 06:43:27 51°13.985 2°55.614 285.3 3 295 9.6
2012-04-05 06:43:32 51°13.988 2°55.607 291.1 3.4 298 9.6
2012-04-05 06:43:37 51°13.991 2°55.6 298.7 3.9 306 9.6
2012-04-05 06:43:42 51°13.994 2°55.592 305.1 4.4 307 -999
2012-04-05 06:43:47 51°13.998 2°55.584 308.4 5 310 9.6
2012-04-05 06:43:52 51°14.003 2°55.575 310.2 5.4 311 9.6
2012-04-05 06:43:57 51°14.008 2°55.565 311.3 5.7 313 9.6
2012-04-05 06:44:02 51°14.015 2°55.556 313 6.1 315 -999
2012-04-05 06:44:07 51°14.021 2°55.545 315.7 6.5 317 -999
2012-04-05 06:44:12 51°14.028 2°55.536 318 6.8 319 -999
2012-04-05 06:44:17 51°14.036 2°55.526 320.4 7.1 321 -999
2012-04-05 06:44:22 51°14.044 2°55.516 322.4 7.4 322 -999
2012-04-05 06:44:27 51°14.052 2°55.506 324.1 7.6 324 -999
2012-04-05 06:44:32 51°14.061 2°55.496 326.4 7.8 325 -999
2012-04-05 06:44:37 51°14.07 2°55.486 326.8 8 325 -999
2012-04-05 06:44:42 51°14.08 2°55.475 327.3 8.1 325 -999
2012-04-05 06:44:47 51°14.089 2°55.465 328.1 8.3 326 -999
2012-04-05 06:44:52 51°14.099 2°55.455 328.7 8.4 325 -999
2012-04-05 06:44:57 51°14.109 2°55.444 327.8 8.5 326 -999
2012-04-05 06:45:02 51°14.118 2°55.434 328.1 8.6 327 -999
2012-04-05 06:45:07 51°14.129 2°55.424 329.5 8.6 328 -999
2012-04-05 06:45:12 51°14.139 2°55.414 330.3 8.7 328 -999
2012-04-05 06:45:17 51°14.149 2°55.404 330.3 8.7 328 -999
2012-04-05 06:45:22 51°14.16 2°55.393 330.3 8.8 329 -999
2012-04-05 06:45:27 51°14.17 2°55.383 330.9 8.8 329 -999
2012-04-05 06:45:32 51°14.181 2°55.374 331.8 8.8 330 9.6
2012-04-05 06:45:37 51°14.191 2°55.364 331.9 8.9 329 -999
2012-04-05 06:45:42 51°14.202 2°55.353 331.1 8.9 328 -999
2012-04-05 06:45:47 51°14.212 2°55.343 330.9 8.9 329 -999
2012-04-05 06:45:52 51°14.223 2°55.333 331.8 9 330 -999
2012-04-05 06:45:57 51°14.234 2°55.323 332.2 9.1 329 -999
2012-04-05 06:46:02 51°14.245 2°55.313 332.2 9.2 330 -999
2012-04-05 06:46:07 51°14.256 2°55.302 331.7 9.4 328 -999
2012-04-05 06:46:12 51°14.267 2°55.291 330.7 9.4 328 -999
2012-04-05 06:46:17 51°14.278 2°55.279 329.8 9.5 327 -999
2012-04-05 06:46:22 51°14.289 2°55.268 329.4 9.6 327 -999
2012-04-05 06:46:27 51°14.301 2°55.257 330.3 9.7 329 -999
2012-04-05 06:46:32 51°14.312 2°55.246 331.3 9.8 329 -999
2012-04-05 06:46:37 51°14.324 2°55.234 330.3 9.9 328 -999
2012-04-05 06:46:42 51°14.336 2°55.222 329.7 9.9 328 -999
2012-04-05 06:46:47 51°14.348 2°55.211 329.6 9.9 328 -999
2012-04-05 06:46:52 51°14.359 2°55.199 329.9 10 328 -999
2012-04-05 06:46:57 51°14.371 2°55.187 329.9 10 327 -999
2012-04-05 06:47:02 51°14.382 2°55.175 328.3 9.9 325 -999
2012-04-05 06:47:07 51°14.394 2°55.162 327.2 9.9 326 9.8
2012-04-05 06:47:12 51°14.405 2°55.15 327.7 9.9 327 -999
2012-04-05 06:47:17 51°14.416 2°55.139 329.9 9.9 329 -999
2012-04-05 06:47:22 51°14.428 2°55.127 330.6 10 327 -999
2012-04-05 06:47:27 51°14.44 2°55.115 330 10.1 327 9.4
2012-04-05 06:47:32 51°14.452 2°55.103 329.4 10.1 326 9.2
2012-04-05 06:47:37 51°14.464 2°55.091 329.2 10.3 327 -999
2012-04-05 06:47:42 51°14.476 2°55.079 330.5 10.3 328 9.7
2012-04-05 06:47:47 51°14.488 2°55.066 330 10.6 326 -999
2012-04-05 06:47:52 51°14.5 2°55.052 328.8 10.7 325 9.7
2012-04-05 06:47:57 51°14.512 2°55.038 328.5 10.7 326 9.5
2012-04-05 06:48:02 51°14.523 2°55.024 328.8 10.8 321 10.1
2012-04-05 06:48:07 51°14.535 2°55.007 327.9 11 317 10.2
2012-04-05 06:48:12 51°14.546 2°54.99 325.4 11.1 316 10.8
2012-04-05 06:48:17 51°14.557 2°54.973 324.1 11.4 317 10.9
2012-04-05 06:48:22 51°14.569 2°54.956 324.3 11.4 317 10.7
2012-04-05 06:48:27 51°14.58 2°54.938 324.6 11.5 315 11.2
2012-04-05 06:48:32 51°14.592 2°54.921 323.7 11.6 317 10.9
2012-04-05 06:48:37 51°14.604 2°54.903 323.8 11.7 316 10.9
2012-04-05 06:48:41 51°14.613 2°54.889 325 11.7 318 10.7
2012-04-05 06:48:47 51°14.627 2°54.867 325.2 11.7 317 10.8
2012-04-05 06:48:52 51°14.64 2°54.85 325.1 11.8 318 10.7
2012-04-05 06:48:57 51°14.652 2°54.832 326 11.9 317 10.6
2012-04-05 06:49:01 51°14.661 2°54.818 325.4 11.8 318 10.9
2012-04-05 06:49:06 51°14.674 2°54.801 326 11.9 319 10.6
2012-04-05 06:49:12 51°14.689 2°54.78 327.1 11.9 320 10.4
2012-04-05 06:49:17 51°14.702 2°54.763 327.8 12 320 10.8
2012-04-05 06:49:21 51°14.712 2°54.75 327.5 11.9 320 10.5
2012-04-05 06:49:26 51°14.724 2°54.733 327.5 12 320 10.2
2012-04-05 06:49:32 51°14.74 2°54.713 328.2 11.9 322 10.4
2012-04-05 06:49:37 51°14.753 2°54.696 329.2 12 321 10.8
2012-04-05 06:49:42 51°14.766 2°54.68 329.4 12.1 322 10.4
2012-04-05 06:49:46 51°14.777 2°54.667 329.1 12 323 10.5
2012-04-05 06:49:52 51°14.792 2°54.648 330.2 11.8 322 10.9
2012-04-05 06:49:57 51°14.805 2°54.632 330.1 11.7 323 11.2
2012-04-05 06:50:02 51°14.819 2°54.617 330.2 11.7 326 10.4
2012-04-05 06:50:06 51°14.829 2°54.606 332 11.6 326 9.9
2012-04-05 06:50:12 51°14.845 2°54.589 333.3 11.3 326 10.4
2012-04-05 06:50:17 51°14.858 2°54.575 333.7 11.3 325 11.4
2012-04-05 06:50:22 51°14.871 2°54.56 332.8 11.4 323 11.2
2012-04-05 06:50:26 51°14.881 2°54.547 331.5 11.6 323 10.8
2012-04-05 06:50:32 51°14.896 2°54.528 330.6 11.7 322 10.3
2012-04-05 06:50:37 51°14.909 2°54.512 330 11.6 321 10.2
2012-04-05 06:50:41 51°14.919 2°54.499 329 11.7 321 11
2012-04-05 06:50:46 51°14.931 2°54.483 328.3 11.8 321 10.6
2012-04-05 06:50:52 51°14.947 2°54.464 328 11.8 324 10.2
2012-04-05 06:50:57 51°14.96 2°54.449 329.7 11.7 324 10.4
2012-04-05 06:51:01 51°14.97 2°54.437 331.3 11.8 322 10.1
2012-04-05 06:51:06 51°14.983 2°54.42 330.9 11.5 321 10.3
2012-04-05 06:51:12 51°14.997 2°54.401 329.6 11.6 320 10
2012-04-05 06:51:17 51°15.01 2°54.384 328.5 11.6 321 9.8
2012-04-05 06:51:21 51°15.02 2°54.371 328.2 11.8 321 10
2012-04-05 06:51:26 51°15.033 2°54.355 328.2 11.8 322 10.1
2012-04-05 06:51:31 51°15.046 2°54.339 328.5 11.7 324 10
2012-04-05 06:51:37 51°15.062 2°54.321 331 11.8 325 10.1
2012-04-05 06:51:41 51°15.072 2°54.309 332.5 11.7 324 10
2012-04-05 06:51:46 51°15.085 2°54.294 332.6 11.5 322 10.5
2012-04-05 06:51:51 51°15.097 2°54.277 331.1 11.8 320 9.8
2012-04-05 06:51:57 51°15.112 2°54.257 328.8 11.8 320 9.8
2012-04-05 06:52:01 51°15.122 2°54.244 328 11.8 320 9.9
2012-04-05 06:52:06 51°15.135 2°54.228 328.3 11.8 323 10
2012-04-05 06:52:11 51°15.148 2°54.212 329.4 11.7 321 10.3
2012-04-05 06:52:16 51°15.161 2°54.195 329 11.8 321 9.9
2012-04-05 06:52:21 51°15.173 2°54.179 327.6 11.7 322 10.2
2012-04-05 06:52:26 51°15.186 2°54.163 328.9 11.8 322 9.8
2012-04-05 06:52:31 51°15.199 2°54.147 329.5 11.8 320 10.1
2012-04-05 06:52:36 51°15.211 2°54.13 328.5 11.8 320 10.1
2012-04-05 06:52:41 51°15.224 2°54.113 327.6 11.9 320 10.2
2012-04-05 06:52:46 51°15.237 2°54.096 326.7 12 320 10.1
2012-04-05 06:52:51 51°15.249 2°54.079 327.2 11.8 321 10.5
2012-04-05 06:52:56 51°15.262 2°54.064 328.2 11.9 322 10.4
2012-04-05 06:53:01 51°15.276 2°54.048 329.2 11.8 323 10.2
2012-04-05 06:53:06 51°15.288 2°54.032 329.6 11.9 321 10.1
2012-04-05 06:53:11 51°15.301 2°54.015 328.2 11.9 321 10.4
2012-04-05 06:53:16 51°15.314 2°53.998 328 12 321 10.4
2012-04-05 06:53:21 51°15.327 2°53.982 328.2 12 322 10.3
2012-04-05 06:53:26 51°15.34 2°53.966 328.7 11.9 323 10.6
2012-04-05 06:53:31 51°15.353 2°53.95 330 11.9 323 10.4
2012-04-05 06:53:36 51°15.366 2°53.934 330.3 11.9 321 10.5
2012-04-05 06:53:41 51°15.379 2°53.918 330 11.9 322 10.5
2012-04-05 06:53:46 51°15.392 2°53.902 329.6 11.9 324 10.4
2012-04-05 06:53:51 51°15.406 2°53.887 330.9 11.9 324 10.7
2012-04-05 06:53:56 51°15.419 2°53.871 331.9 11.7 323 10.9
2012-04-05 06:54:01 51°15.431 2°53.855 331.4 11.8 321 10.4
2012-04-05 06:54:06 51°15.444 2°53.839 329.9 11.8 321 10.3
2012-04-05 06:54:11 51°15.457 2°53.823 329.3 11.8 321 10.6
2012-04-05 06:54:16 51°15.47 2°53.806 329.6 12 322 10.4
2012-04-05 06:54:21 51°15.483 2°53.79 329.6 11.9 322 10.6
2012-04-05 06:54:26 51°15.496 2°53.775 330.7 11.8 326 10.4
2012-04-05 06:54:31 51°15.51 2°53.76 332.8 11.9 325 10.5
2012-04-05 06:54:36 51°15.524 2°53.747 334 11.8 329 10.7
2012-04-05 06:54:41 51°15.538 2°53.733 335.9 11.7 329 10.9
2012-04-05 06:54:46 51°15.552 2°53.721 336.9 11.7 331 10.7
2012-04-05 06:54:51 51°15.566 2°53.708 338 11.7 330 10.8
2012-04-05 06:54:56 51°15.58 2°53.695 338.3 11.8 330 11
2012-04-05 06:55:01 51°15.594 2°53.681 337.6 11.8 329 10.9
2012-04-05 06:55:06 51°15.608 2°53.67 338.1 11.7 333 10.8
2012-04-05 06:55:11 51°15.623 2°53.658 340.5 11.6 334 11.1
2012-04-05 06:55:16 51°15.637 2°53.647 341.8 11.7 334 10.8
2012-04-05 06:55:21 51°15.652 2°53.636 342.6 11.5 334 11.4
2012-04-05 06:55:26 51°15.666 2°53.624 342.7 11.5 333 11
2012-04-05 06:55:31 51°15.68 2°53.612 341.4 11.6 332 10.8
2012-04-05 06:55:36 51°15.694 2°53.6 339.8 11.6 333 10.9
2012-04-05 06:55:41 51°15.708 2°53.589 340.3 11.3 333 11.9
2012-04-05 06:55:46 51°15.722 2°53.578 341.3 11.2 333 11.3
2012-04-05 06:55:51 51°15.736 2°53.566 341.2 11.3 331 11.2
2012-04-05 06:55:56 51°15.75 2°53.553 340.1 11.4 330 11.3
2012-04-05 06:56:01 51°15.764 2°53.541 339 11.5 331 10.8
2012-04-05 06:56:06 51°15.778 2°53.528 339.2 11.5 331 11.3
2012-04-05 06:56:11 51°15.792 2°53.517 339.6 11.5 333 11.6
2012-04-05 06:56:16 51°15.806 2°53.506 341 11.4 333 12
2012-04-05 06:56:21 51°15.82 2°53.495 342.1 11.3 333 11.9
2012-04-05 06:56:26 51°15.834 2°53.483 342.3 11.4 332 11.2
2012-04-05 06:56:31 51°15.848 2°53.472 341.7 11.4 334 11.8
2012-04-05 06:56:36 51°15.862 2°53.461 342.1 11.5 335 11.3
2012-04-05 06:56:41 51°15.876 2°53.451 344 11.3 336 12.1
2012-04-05 06:56:46 51°15.89 2°53.44 344.8 11 335 11.4
2012-04-05 06:56:51 51°15.904 2°53.43 344.7 11.1 335 10.8
2012-04-05 06:56:56 51°15.918 2°53.419 344.1 11.2 334 11.1
2012-04-05 06:57:01 51°15.932 2°53.409 344.1 11.1 334 12
2012-04-05 06:57:06 51°15.946 2°53.397 343.8 11.2 332 11.5
2012-04-05 06:57:11 51°15.96 2°53.385 342.7 11.4 330 11.3
2012-04-05 06:57:16 51°15.973 2°53.371 341 11.5 327 11.2
2012-04-05 06:57:21 51°15.987 2°53.358 339.3 11.5 329 11.4
2012-04-05 06:57:26 51°16.001 2°53.346 339.5 11.3 332 12
2012-04-05 06:57:31 51°16.014 2°53.334 341.1 11.4 332 11.6
2012-04-05 06:57:36 51°16.029 2°53.324 341.2 11.5 335 11.5
2012-04-05 06:57:41 51°16.043 2°53.314 342.3 11.3 336 11.8
2012-04-05 06:57:45 51°16.055 2°53.306 344.1 11.3 337 11.5
2012-04-05 06:57:51 51°16.072 2°53.293 344.6 11.6 336 11.4
2012-04-05 06:57:56 51°16.087 2°53.283 344.7 11.5 336 11.7
2012-04-05 06:58:01 51°16.101 2°53.273 345 11.3 335 12.1
2012-04-05 06:58:05 51°16.112 2°53.264 344.7 11.3 335 11.4
2012-04-05 06:58:11 51°16.13 2°53.252 344.3 11.4 336 11.4
2012-04-05 06:58:16 51°16.144 2°53.241 344.7 11.4 336 11.5
2012-04-05 06:58:21 51°16.159 2°53.231 344.9 11.5 335 11.4
2012-04-05 06:58:25 51°16.17 2°53.222 344.6 11.5 335 11.5
2012-04-05 06:58:30 51°16.185 2°53.212 344.3 11.4 337 11.4
2012-04-05 06:58:36 51°16.202 2°53.2 345.2 11.4 338 11.3
2012-04-05 06:58:41 51°16.217 2°53.192 346.9 11.4 341 11.5
2012-04-05 06:58:45 51°16.229 2°53.186 348.5 11.3 341 11.9
2012-04-05 06:58:50 51°16.243 2°53.177 349.1 11.2 339 12
2012-04-05 06:58:55 51°16.258 2°53.167 348.1 11.3 336 11.6
2012-04-05 06:59:01 51°16.275 2°53.154 345.5 11.5 333 11.3
2012-04-05 06:59:05 51°16.286 2°53.144 342.2 11.5 330 11.8
2012-04-05 06:59:10 51°16.3 2°53.131 339.6 11.4 332 12.2
2012-04-05 06:59:15 51°16.314 2°53.12 339.9 11.5 331 12.1
2012-04-05 06:59:21 51°16.331 2°53.105 339.8 11.5 332 11.7
2012-04-05 06:59:25 51°16.342 2°53.095 339.9 11.6 331 11.8
2012-04-05 06:59:30 51°16.356 2°53.083 340.2 11.4 333 11.9
2012-04-05 06:59:35 51°16.37 2°53.072 340.9 11.5 333 11.5
2012-04-05 06:59:41 51°16.388 2°53.059 341.6 11.5 335 11.6
2012-04-05 06:59:45 51°16.399 2°53.051 342.8 11.4 336 11.6
2012-04-05 06:59:50 51°16.413 2°53.041 344 11.5 338 11.4
2012-04-05 06:59:55 51°16.428 2°53.031 345.2 11.3 337 12
2012-04-05 07:00:01 51°16.445 2°53.019 345.9 11.1 336 11.9
2012-04-05 07:00:05 51°16.456 2°53.011 345.4 11.2 336 11.4
2012-04-05 07:00:10 51°16.47 2°53.001 345.1 11.3 337 11.8
2012-04-05 07:00:16 51°16.488 2°52.989 346 11 336 12.4
2012-04-05 07:00:21 51°16.501 2°52.979 345.3 10.8 335 12.3
2012-04-05 07:00:25 51°16.512 2°52.972 344.1 10.9 336 11.5
2012-04-05 07:00:30 51°16.526 2°52.961 344.6 11 335 11
2012-04-05 07:00:35 51°16.54 2°52.951 345.2 11 336 11.3
2012-04-05 07:00:41 51°16.557 2°52.939 344.3 11.2 336 11
2012-04-05 07:00:45 51°16.569 2°52.931 344.2 11.2 337 11.1
2012-04-05 07:00:50 51°16.583 2°52.921 345.2 11 336 10.8
2012-04-05 07:00:55 51°16.597 2°52.912 345.1 11.2 337 10.9
2012-04-05 07:01:01 51°16.614 2°52.901 344.9 11.1 339 11.3
2012-04-05 07:01:05 51°16.626 2°52.893 345.6 11.2 337 11.1
2012-04-05 07:01:10 51°16.64 2°52.883 345.3 11.2 337 10.8
2012-04-05 07:01:15 51°16.654 2°52.873 344.7 11.3 336 10.7
2012-04-05 07:01:21 51°16.672 2°52.86 344.4 11.4 336 10.7
2012-04-05 07:01:25 51°16.683 2°52.852 344.3 11.3 336 10.8
2012-04-05 07:01:30 51°16.697 2°52.842 344.1 11.3 337 10.9
2012-04-05 07:01:35 51°16.712 2°52.832 344.4 11.4 336 10.3
2012-04-05 07:01:41 51°16.728 2°52.82 344.1 11.1 335 11.1
2012-04-05 07:01:45 51°16.74 2°52.811 343.4 11.1 334 10.4
2012-04-05 07:01:50 51°16.753 2°52.801 342.6 11.1 335 9.5
2012-04-05 07:01:55 51°16.767 2°52.79 342.4 11.2 335 9.4
2012-04-05 07:02:00 51°16.781 2°52.78 342.4 11 335 9.6
2012-04-05 07:02:05 51°16.795 2°52.77 342.4 11.1 335 9.2
2012-04-05 07:02:10 51°16.809 2°52.76 342.1 11.1 336 9.3
2012-04-05 07:02:15 51°16.824 2°52.751 343.6 11.1 338 9
2012-04-05 07:02:20 51°16.838 2°52.741 344.8 11.1 337 9.1
2012-04-05 07:02:25 51°16.852 2°52.732 345.2 11.2 339 9.4
2012-04-05 07:02:30 51°16.866 2°52.723 346.1 11 339 9.3
2012-04-05 07:02:35 51°16.881 2°52.714 346.8 11 339 8.8
2012-04-05 07:02:40 51°16.895 2°52.706 346.6 11.1 339 9.1
2012-04-05 07:02:45 51°16.909 2°52.697 346.6 11.1 339 9.2
2012-04-05 07:02:50 51°16.924 2°52.688 346.7 11.1 341 9.2
2012-04-05 07:02:55 51°16.938 2°52.68 348.2 11.1 340 9.6
2012-04-05 07:03:00 51°16.953 2°52.672 348.5 10.9 341 9.2
2012-04-05 07:03:05 51°16.967 2°52.665 348.5 11 342 9.4
2012-04-05 07:03:10 51°16.982 2°52.657 349.2 11.1 342 9.5
2012-04-05 07:03:15 51°16.996 2°52.65 349.9 10.7 343 8.9
2012-04-05 07:03:20 51°17.01 2°52.643 350.6 10.8 342 8.8
2012-04-05 07:03:25 51°17.025 2°52.636 350.5 10.8 342 9
2012-04-05 07:03:30 51°17.039 2°52.629 350.3 10.8 341 9.8
2012-04-05 07:03:35 51°17.053 2°52.621 349.4 10.9 341 9.3
2012-04-05 07:03:40 51°17.067 2°52.613 349 10.7 341 9.7
2012-04-05 07:03:45 51°17.081 2°52.605 349 10.7 341 8.7
2012-04-05 07:03:50 51°17.096 2°52.598 348.7 10.7 341 9
2012-04-05 07:03:55 51°17.11 2°52.591 349.6 10.7 344 9.1
2012-04-05 07:04:00 51°17.124 2°52.585 351 10.9 345 8.9
2012-04-05 07:04:05 51°17.139 2°52.579 352.1 10.9 346 9
2012-04-05 07:04:10 51°17.154 2°52.574 353.4 10.9 348 9.4
2012-04-05 07:04:15 51°17.169 2°52.568 354.3 11 348 9.3
2012-04-05 07:04:20 51°17.183 2°52.563 355 11 347 9.3
2012-04-05 07:04:25 51°17.198 2°52.558 354.9 10.9 348 9.3
2012-04-05 07:04:30 51°17.213 2°52.553 354.9 11 350 9.8
2012-04-05 07:04:35 51°17.228 2°52.549 356.4 11 350 9.8
2012-04-05 07:04:40 51°17.243 2°52.545 357.3 10.9 351 9.5
2012-04-05 07:04:45 51°17.258 2°52.542 358.5 11 352 9.7
2012-04-05 07:04:50 51°17.274 2°52.54 359.4 10.9 353 9.8
2012-04-05 07:04:55 51°17.288 2°52.537 0.1 10.7 354 9.2
2012-04-05 07:05:00 51°17.303 2°52.534 1.4 10.8 353 9.8
2012-04-05 07:05:05 51°17.318 2°52.532 1.3 10.9 353 9.9
2012-04-05 07:05:09 51°17.33 2°52.529 0.9 10.8 353 9.9
2012-04-05 07:05:15 51°17.348 2°52.525 0.1 10.8 353 9.7
2012-04-05 07:05:20 51°17.362 2°52.521 359.7 10.7 351 9.3
2012-04-05 07:05:25 51°17.377 2°52.518 358.6 10.6 351 9.2
2012-04-05 07:05:29 51°17.389 2°52.515 358.5 10.6 350 9.9
2012-04-05 07:05:35 51°17.406 2°52.511 358.6 10.7 352 9.7
2012-04-05 07:05:40 51°17.421 2°52.508 359.3 10.8 353 9.7
2012-04-05 07:05:45 51°17.436 2°52.504 0.1 10.8 351 9.6
2012-04-05 07:05:49 51°17.448 2°52.502 -999 10.8 354 9.9
2012-04-05 07:05:54 51°17.463 2°52.5 1 10.9 355 9.9
2012-04-05 07:06:00 51°17.481 2°52.498 2.3 10.7 358 9.6
2012-04-05 07:06:05 51°17.496 2°52.498 4.1 10.7 359 10.1
2012-04-05 07:06:09 51°17.508 2°52.499 6.1 10.6 2 9.4
2012-04-05 07:06:15 51°17.525 2°52.498 7.3 10.6 359 9.6
2012-04-05 07:06:20 51°17.54 2°52.499 7.2 10.6 1 10.3
2012-04-05 07:06:25 51°17.555 2°52.499 7.6 10.6 1 10.6
2012-04-05 07:06:29 51°17.567 2°52.5 8.2 10.5 3 9.8
2012-04-05 07:06:34 51°17.581 2°52.501 8.7 10.7 2 10
2012-04-05 07:06:40 51°17.599 2°52.502 8.4 10.7 3 10.3
2012-04-05 07:06:45 51°17.614 2°52.503 8.8 10.6 2 11
2012-04-05 07:06:49 51°17.625 2°52.503 8.1 10.4 3 9.5
2012-04-05 07:06:54 51°17.64 2°52.505 8.7 10.4 2 9.7
2012-04-05 07:07:00 51°17.657 2°52.506 8.8 10.5 3 9.7
2012-04-05 07:07:05 51°17.672 2°52.506 8.7 10.7 -999 9.8
2012-04-05 07:07:09 51°17.684 2°52.506 7.9 10.6 1 9.9
2012-04-05 07:07:15 51°17.701 2°52.507 7.9 10.6 2 9.6
2012-04-05 07:07:20 51°17.716 2°52.509 8.7 10.5 4 9.5
2012-04-05 07:07:25 51°17.731 2°52.511 10 10.6 5 9.9
2012-04-05 07:07:29 51°17.742 2°52.513 10.9 10.3 7 10
2012-04-05 07:07:34 51°17.756 2°52.516 12.2 10.2 5 9.4
2012-04-05 07:07:40 51°17.773 2°52.518 11.6 10.3 5 9.7
2012-04-05 07:07:45 51°17.787 2°52.52 11.1 10.4 5 9.7
2012-04-05 07:07:49 51°17.799 2°52.521 11.1 10.2 5 10.4
2012-04-05 07:07:54 51°17.813 2°52.523 11 10.3 5 10.8
2012-04-05 07:08:00 51°17.831 2°52.526 12 10.4 5 10.7
2012-04-05 07:08:05 51°17.844 2°52.527 10.8 10.3 4 10.2
2012-04-05 07:08:09 51°17.856 2°52.528 10.5 10.4 4 10.4
2012-04-05 07:08:14 51°17.87 2°52.529 9.9 10.5 4 10.3
2012-04-05 07:08:20 51°17.888 2°52.531 9.8 10.6 3 10.4
2012-04-05 07:08:25 51°17.902 2°52.533 10.2 10.7 4 10.4
2012-04-05 07:08:29 51°17.914 2°52.533 9.6 10.6 3 9.8
2012-04-05 07:08:34 51°17.928 2°52.536 10.7 10.5 7 10.6
2012-04-05 07:08:39 51°17.943 2°52.539 12.4 10.5 8 11
2012-04-05 07:08:45 51°17.96 2°52.543 13.7 10.5 9 10.4
2012-04-05 07:08:49 51°17.971 2°52.546 14.5 10.5 10 10.2
2012-04-05 07:08:54 51°17.986 2°52.55 15.5 10.5 10 10
2012-04-05 07:08:59 51°18 2°52.554 16.1 10.4 10 10.2
2012-04-05 07:09:04 51°18.014 2°52.56 16.7 10.4 13 10.1
2012-04-05 07:09:09 51°18.028 2°52.565 18.8 10.6 13 10.3
2012-04-05 07:09:14 51°18.042 2°52.57 18.6 10.4 13 10
2012-04-05 07:09:19 51°18.056 2°52.576 19.6 10.5 15 10.3
2012-04-05 07:09:24 51°18.07 2°52.583 20.9 10.3 17 10.5
2012-04-05 07:09:29 51°18.083 2°52.589 22 10.3 18 10.5
2012-04-05 07:09:34 51°18.097 2°52.596 22.3 10.3 18 10.6
2012-04-05 07:09:39 51°18.111 2°52.603 22.6 10.4 18 11.1
2012-04-05 07:09:44 51°18.124 2°52.611 23.1 10.3 18 10.9
2012-04-05 07:09:49 51°18.137 2°52.618 23.2 10.3 20 10.9
2012-04-05 07:09:54 51°18.15 2°52.627 24.8 10.2 24 10.7
2012-04-05 07:09:59 51°18.163 2°52.636 27.1 10.4 24 10.8
2012-04-05 07:10:04 51°18.176 2°52.645 27.1 10.4 25 10.7
2012-04-05 07:10:09 51°18.189 2°52.656 29 10.3 28 10.9
2012-04-05 07:10:14 51°18.202 2°52.666 30.5 10.6 28 10.8
2012-04-05 07:10:19 51°18.215 2°52.678 31.4 10.4 30 10.8
2012-04-05 07:10:24 51°18.227 2°52.69 33.6 10.5 32 10.6
2012-04-05 07:10:29 51°18.239 2°52.703 35.5 10.5 34 11.2
2012-04-05 07:10:34 51°18.25 2°52.716 36.4 10.4 36 10.6
2012-04-05 07:10:39 51°18.262 2°52.73 39 10.2 38 10.5
2012-04-05 07:10:44 51°18.272 2°52.744 41.2 10.3 41 10.6
2012-04-05 07:10:49 51°18.283 2°52.76 43.2 10.4 42 10.9
2012-04-05 07:10:54 51°18.294 2°52.775 43.2 10.4 40 10.6
2012-04-05 07:10:59 51°18.304 2°52.791 43.4 10.2 43 10.7
2012-04-05 07:11:04 51°18.315 2°52.806 44.8 10.3 43 10.9
2012-04-05 07:11:09 51°18.325 2°52.823 45.4 10.3 46 10.3
2012-04-05 07:11:14 51°18.335 2°52.839 46.7 10.3 45 10.4
2012-04-05 07:11:19 51°18.345 2°52.855 47 10.4 45 10.7
2012-04-05 07:11:24 51°18.355 2°52.871 46.8 10.3 45 10.6
2012-04-05 07:11:29 51°18.365 2°52.887 47.1 10.2 46 10.9
2012-04-05 07:11:34 51°18.375 2°52.904 47.7 10.4 48 11.7
2012-04-05 07:11:39 51°18.384 2°52.922 48.6 10.3 51 11.3
2012-04-05 07:11:44 51°18.393 2°52.939 50.3 10 51 10.6
2012-04-05 07:11:49 51°18.402 2°52.956 50.9 10.1 50 10.8
2012-04-05 07:11:54 51°18.411 2°52.974 52.1 10.1 51 10.5
2012-04-05 07:11:59 51°18.42 2°52.992 52.2 10.3 52 10.5
2012-04-05 07:12:04 51°18.428 2°53.01 53.1 10.4 51 10.4
2012-04-05 07:12:09 51°18.437 2°53.029 53.6 10.4 54 10.7
2012-04-05 07:12:14 51°18.446 2°53.047 53.8 10.4 52 10.7
2012-04-05 07:12:19 51°18.454 2°53.066 53.5 10.5 53 10.7
2012-04-05 07:12:24 51°18.463 2°53.084 52.9 10.6 52 11.3
2012-04-05 07:12:29 51°18.473 2°53.103 52.4 10.5 52 10.5
2012-04-05 07:12:33 51°18.479 2°53.118 53.3 10.4 54 10.7
2012-04-05 07:12:39 51°18.489 2°53.14 54.2 10.5 56 11.4
2012-04-05 07:12:44 51°18.498 2°53.159 54.1 10.5 53 11
2012-04-05 07:12:49 51°18.507 2°53.178 54.5 10.6 55 10.9
2012-04-05 07:12:53 51°18.513 2°53.193 55.2 10.5 53 10.6
2012-04-05 07:12:59 51°18.523 2°53.216 54.8 10.5 57 10.9
2012-04-05 07:13:04 51°18.532 2°53.234 55.2 10.4 53 10.5
2012-04-05 07:13:09 51°18.54 2°53.254 54.9 10.4 55 10.7
2012-04-05 07:13:14 51°18.55 2°53.272 53.8 10.3 51 10.6
2012-04-05 07:13:19 51°18.558 2°53.29 53.8 10.3 53 10.8
2012-04-05 07:13:24 51°18.567 2°53.309 53.1 10.3 52 10.5
2012-04-05 07:13:29 51°18.576 2°53.327 52.4 10.5 53 11.1
2012-04-05 07:13:33 51°18.584 2°53.341 51.9 10.4 50 11.1
2012-04-05 07:13:39 51°18.595 2°53.362 50.8 10.4 49 11.1
2012-04-05 07:13:44 51°18.604 2°53.379 50.4 10.5 48 10.9
2012-04-05 07:13:49 51°18.614 2°53.398 50.5 10.5 50 10.8
2012-04-05 07:13:53 51°18.621 2°53.411 50.2 10.4 49 10.8
2012-04-05 07:13:59 51°18.633 2°53.432 49.9 10.3 49 11.5
2012-04-05 07:14:04 51°18.642 2°53.449 49.5 10.3 48 11.3
2012-04-05 07:14:09 51°18.652 2°53.466 49.5 10.3 48 10.8
2012-04-05 07:14:14 51°18.662 2°53.482 48.9 10.3 47 11.1
2012-04-05 07:14:19 51°18.672 2°53.499 48.7 10.4 46 11.2
2012-04-05 07:14:24 51°18.682 2°53.516 48 10.4 48 11.1
2012-04-05 07:14:29 51°18.692 2°53.533 48.5 10.6 46 11.2
2012-04-05 07:14:33 51°18.699 2°53.547 48.5 10.6 51 11.4
2012-04-05 07:14:39 51°18.711 2°53.568 49.4 10.3 48 10.5
2012-04-05 07:14:44 51°18.72 2°53.586 49.4 10.3 51 11.3
2012-04-05 07:14:49 51°18.729 2°53.602 48.8 10.3 46 11.6
2012-04-05 07:14:53 51°18.736 2°53.616 47.8 10 51 10.9
2012-04-05 07:14:59 51°18.747 2°53.635 50.3 10 47 10.8
2012-04-05 07:15:04 51°18.757 2°53.652 48.7 10.1 45 11
2012-04-05 07:15:09 51°18.767 2°53.668 48 10.2 48 11.5
2012-04-05 07:15:13 51°18.775 2°53.681 48 10.5 45 11.5
2012-04-05 07:15:19 51°18.787 2°53.702 48 10.5 47 10.7
2012-04-05 07:15:24 51°18.796 2°53.719 48.6 10.3 49 10.7
2012-04-05 07:15:29 51°18.806 2°53.735 49.4 10.2 47 11
2012-04-05 07:15:33 51°18.813 2°53.749 48.8 10.3 47 11
2012-04-05 07:15:39 51°18.825 2°53.77 48.9 10.5 48 11
2012-04-05 07:15:44 51°18.835 2°53.787 48.9 10.5 46 11.3
2012-04-05 07:15:49 51°18.845 2°53.804 48.9 10.5 50 11.7
2012-04-05 07:15:53 51°18.853 2°53.817 48.8 10.4 47 11.9
2012-04-05 07:15:59 51°18.864 2°53.838 48.9 10.5 47 11.2
2012-04-05 07:16:04 51°18.874 2°53.855 49.2 10.5 48 11.3
2012-04-05 07:16:09 51°18.884 2°53.872 49 10.5 48 11.4
2012-04-05 07:16:13 51°18.891 2°53.886 49.2 10.4 48 11.1
2012-04-05 07:16:19 51°18.903 2°53.907 49.7 10.4 49 11.3
2012-04-05 07:16:24 51°18.913 2°53.925 50.2 10.6 48 11.1
2012-04-05 07:16:29 51°18.923 2°53.942 49.8 10.6 48 11.1
2012-04-05 07:16:33 51°18.93 2°53.957 49.5 10.3 49 10.8
2012-04-05 07:16:39 51°18.941 2°53.977 50.3 10.4 49 11.5
2012-04-05 07:16:44 51°18.951 2°53.995 50.3 10.5 50 11.6
2012-04-05 07:16:49 51°18.961 2°54.013 49.9 10.6 50 11.8
2012-04-05 07:16:53 51°18.969 2°54.027 49.9 10.5 48 11.6
2012-04-05 07:16:59 51°18.98 2°54.048 50 10.5 49 11.4
2012-04-05 07:17:04 51°18.99 2°54.065 49.6 10.6 47 11.3
2012-04-05 07:17:09 51°19 2°54.082 49.1 10.6 46 11
2012-04-05 07:17:13 51°19.009 2°54.096 47.8 10.6 46 11.4
2012-04-05 07:17:19 51°19.021 2°54.115 47.3 10.5 45 11.4
2012-04-05 07:17:24 51°19.031 2°54.132 47.2 10.6 45 11.5
2012-04-05 07:17:29 51°19.041 2°54.15 47.6 10.5 46 11.2
2012-04-05 07:17:33 51°19.05 2°54.163 47.7 10.6 46 11.7
2012-04-05 07:17:38 51°19.06 2°54.18 47.1 10.5 46 12
2012-04-05 07:17:44 51°19.073 2°54.2 46.7 10.6 44 11.8
2012-04-05 07:17:49 51°19.083 2°54.216 46.1 10.4 45 11.1
2012-04-05 07:17:53 51°19.091 2°54.228 46 10.5 43 11.4
2012-04-05 07:17:58 51°19.102 2°54.245 46 10.5 44 11.5
2012-04-05 07:18:04 51°19.114 2°54.264 45.9 10.5 45 11.6
2012-04-05 07:18:09 51°19.124 2°54.281 46.5 10.5 46 11.9
2012-04-05 07:18:13 51°19.132 2°54.294 47.7 10.5 47 11.5
2012-04-05 07:18:19 51°19.143 2°54.316 49.6 10.5 49 11.8
2012-04-05 07:18:24 51°19.152 2°54.335 51.6 10.7 53 12
2012-04-05 07:18:29 51°19.161 2°54.353 52.2 10.6 53 12.4
2012-04-05 07:18:33 51°19.168 2°54.368 53.3 10.6 56 12.4
2012-04-05 07:18:39 51°19.179 2°54.39 53.5 10.4 53 11.4
2012-04-05 07:18:44 51°19.187 2°54.409 54.1 10.5 55 11.9
2012-04-05 07:18:49 51°19.196 2°54.428 54.5 10.6 54 11.9
2012-04-05 07:18:53 51°19.202 2°54.443 54.7 10.4 56 11
2012-04-05 07:18:59 51°19.212 2°54.466 55.8 10.3 53 11.4
2012-04-05 07:19:04 51°19.22 2°54.485 55 10.5 56 12
2012-04-05 07:19:09 51°19.229 2°54.503 55.3 10.4 54 11.9
2012-04-05 07:19:13 51°19.235 2°54.518 55.2 10.4 56 11.8
2012-04-05 07:19:19 51°19.246 2°54.54 54.4 10.4 51 11.6
2012-04-05 07:19:24 51°19.255 2°54.559 53.1 10.5 53 11.9
2012-04-05 07:19:29 51°19.264 2°54.577 52.7 10.5 52 11.8
2012-04-05 07:19:33 51°19.271 2°54.591 52.8 10.4 52 11.6
2012-04-05 07:19:39 51°19.281 2°54.614 53.1 10.5 51 11.4
2012-04-05 07:19:44 51°19.29 2°54.633 53.5 10.4 54 11.5
2012-04-05 07:19:49 51°19.299 2°54.65 53.3 10.4 52 11.5
2012-04-05 07:19:53 51°19.306 2°54.665 53.1 10.4 51 11.2
2012-04-05 07:19:58 51°19.314 2°54.683 53.1 10.2 53 11.6
2012-04-05 07:20:04 51°19.324 2°54.705 53.9 10.2 54 12
2012-04-05 07:20:09 51°19.333 2°54.723 54.5 10.1 52 11.3
2012-04-05 07:20:13 51°19.34 2°54.737 53.2 10.1 53 12.2
2012-04-05 07:20:18 51°19.348 2°54.755 53.4 10.1 52 11.8
2012-04-05 07:20:24 51°19.359 2°54.776 53 10.3 51 12.1
2012-04-05 07:20:29 51°19.368 2°54.794 52.3 10.3 51 11.7
2012-04-05 07:20:33 51°19.375 2°54.808 52.3 10.3 52 12
2012-04-05 07:20:39 51°19.386 2°54.83 52 10.4 50 11.6
2012-04-05 07:20:44 51°19.395 2°54.848 52.7 10.5 52 11.7
2012-04-05 07:20:49 51°19.404 2°54.866 52.7 10.4 51 11.5
2012-04-05 07:20:53 51°19.411 2°54.88 52.4 10.4 50 11.3
2012-04-05 07:20:59 51°19.422 2°54.902 52.3 10.4 51 11.6
2012-04-05 07:21:04 51°19.432 2°54.92 52 10.4 50 11.4
2012-04-05 07:21:09 51°19.44 2°54.937 51.4 10.1 53 11.4
2012-04-05 07:21:13 51°19.448 2°54.951 51.8 10.1 50 12.2
2012-04-05 07:21:19 51°19.458 2°54.972 51.6 10.2 51 12.2
2012-04-05 07:21:24 51°19.467 2°54.989 51.1 9.9 52 11.3
2012-04-05 07:21:29 51°19.476 2°55.007 52.2 10.1 51 11.7
2012-04-05 07:21:33 51°19.483 2°55.02 52.3 10.1 51 11.8
2012-04-05 07:21:39 51°19.494 2°55.041 52.3 10.4 49 11.7
2012-04-05 07:21:44 51°19.502 2°55.059 52.5 10.3 52 11.9
2012-04-05 07:21:49 51°19.511 2°55.077 52.5 10.2 51 11.9
2012-04-05 07:21:53 51°19.518 2°55.092 53 10.2 53 12.2
2012-04-05 07:21:58 51°19.527 2°55.109 52.8 10.3 51 12.1
2012-04-05 07:22:04 51°19.537 2°55.131 53.4 10.4 51 12
2012-04-05 07:22:09 51°19.546 2°55.15 53.5 10.4 54 12.3
2012-04-05 07:22:13 51°19.553 2°55.163 52.6 10.3 50 11.7
2012-04-05 07:22:18 51°19.562 2°55.181 52.5 10.2 50 11.6
2012-04-05 07:22:24 51°19.573 2°55.201 52.2 10.2 49 11.9
2012-04-05 07:22:29 51°19.582 2°55.219 51.7 10 51 11.1
2012-04-05 07:22:33 51°19.589 2°55.233 52 10.2 50 11.2
2012-04-05 07:22:39 51°19.599 2°55.254 52.1 10.2 51 11.3
2012-04-05 07:22:44 51°19.609 2°55.271 51.3 10.3 48 12.1
2012-04-05 07:22:49 51°19.618 2°55.288 49.6 10.2 51 11.9
2012-04-05 07:22:53 51°19.626 2°55.301 50.8 10.1 50 12
2012-04-05 07:22:59 51°19.636 2°55.322 51.2 10.2 50 12
2012-04-05 07:23:04 51°19.646 2°55.339 51.2 10.3 48 11.5
2012-04-05 07:23:09 51°19.655 2°55.356 50.9 10.3 49 11.4
2012-04-05 07:23:13 51°19.662 2°55.37 50.9 10.3 49 11.8
2012-04-05 07:23:19 51°19.673 2°55.392 51.3 10.3 53 12
2012-04-05 07:23:24 51°19.683 2°55.408 51.2 10.2 49 11.9
2012-04-05 07:23:29 51°19.692 2°55.425 51.4 10.2 48 12
2012-04-05 07:23:33 51°19.7 2°55.439 50.9 10.1 50 12
2012-04-05 07:23:39 51°19.71 2°55.46 51.6 10.2 50 12.3
2012-04-05 07:23:44 51°19.719 2°55.478 52 10.3 52 12.2
2012-04-05 07:23:49 51°19.728 2°55.495 52.7 10.1 51 11.5
2012-04-05 07:23:53 51°19.735 2°55.509 52.8 9.9 52 11.9
2012-04-05 07:23:59 51°19.745 2°55.53 53.1 10 50 12.4
2012-04-05 07:24:04 51°19.754 2°55.548 52.8 10.1 53 12.1
2012-04-05 07:24:09 51°19.763 2°55.565 52.9 10.2 49 11.8
2012-04-05 07:24:13 51°19.77 2°55.579 52.7 10.2 53 12.2
2012-04-05 07:24:18 51°19.779 2°55.596 52.5 10.2 50 12.2
2012-04-05 07:24:24 51°19.789 2°55.618 53.1 10.3 55 12.1
2012-04-05 07:24:29 51°19.798 2°55.636 54.5 10.4 53 12
2012-04-05 07:24:33 51°19.805 2°55.65 54.3 10.4 52 11.9
2012-04-05 07:24:38 51°19.814 2°55.669 54.1 10.4 52 11.8
2012-04-05 07:24:44 51°19.824 2°55.691 54.2 10.3 52 11.7
2012-04-05 07:24:49 51°19.833 2°55.71 54.5 10.3 55 11.6
2012-04-05 07:24:53 51°19.84 2°55.725 55.8 10.4 53 11.7
2012-04-05 07:24:59 51°19.85 2°55.747 55.3 10.4 54 12.3
2012-04-05 07:25:04 51°19.858 2°55.766 55.5 10.4 53 11.7
2012-04-05 07:25:09 51°19.866 2°55.785 55.4 10.3 55 11.4
2012-04-05 07:25:13 51°19.873 2°55.799 55.7 10.4 54 11.7
2012-04-05 07:25:19 51°19.883 2°55.822 55.2 10.4 53 11.5
2012-04-05 07:25:24 51°19.892 2°55.84 54.2 10.4 53 12.1
2012-04-05 07:25:29 51°19.901 2°55.858 53.9 10.4 52 12.1
2012-04-05 07:25:33 51°19.908 2°55.872 53.6 10.5 52 11.9
2012-04-05 07:25:39 51°19.919 2°55.895 53.6 10.6 51 11.6
2012-04-05 07:25:44 51°19.928 2°55.912 52.5 10.4 52 11.8
2012-04-05 07:25:49 51°19.937 2°55.93 52.6 10.5 52 12.1
2012-04-05 07:25:53 51°19.944 2°55.945 53 10.5 50 11.5
2012-04-05 07:25:59 51°19.955 2°55.966 52.3 10.4 50 11.5
2012-04-05 07:26:04 51°19.965 2°55.984 52.3 10.4 50 11.5
2012-04-05 07:26:09 51°19.974 2°56.002 51.6 10.4 50 11.9
2012-04-05 07:26:13 51°19.981 2°56.017 51.5 10.4 52 12.9
2012-04-05 07:26:19 51°19.993 2°56.038 50.9 10.5 49 11.9
2012-04-05 07:26:24 51°20.002 2°56.055 51.3 10.5 49 12
2012-04-05 07:26:29 51°20.012 2°56.073 50.3 10.6 48 12.1
2012-04-05 07:26:33 51°20.019 2°56.087 50.5 10.6 52 11.8
2012-04-05 07:26:39 51°20.031 2°56.108 50.7 10.6 49 11.5
2012-04-05 07:26:44 51°20.04 2°56.126 51.4 10.6 52 12.1
2012-04-05 07:26:49 51°20.05 2°56.143 51.3 10.6 48 12
2012-04-05 07:26:53 51°20.056 2°56.159 51.6 10.6 53 12.1
2012-04-05 07:26:58 51°20.066 2°56.177 52.5 10.6 50 11.8
2012-04-05 07:27:03 51°20.074 2°56.196 53.8 10.7 54 11.8
2012-04-05 07:27:09 51°20.085 2°56.219 54.3 10.5 55 11.6
2012-04-05 07:27:13 51°20.091 2°56.235 55.6 10.5 57 12.7
2012-04-05 07:27:19 51°20.101 2°56.258 56.2 10.5 59 11.8
2012-04-05 07:27:24 51°20.109 2°56.277 58 10.5 55 11.6
2012-04-05 07:27:29 51°20.117 2°56.297 56.6 10.5 57 11.3
2012-04-05 07:27:33 51°20.123 2°56.313 57.9 10.5 56 11.5
2012-04-05 07:27:39 51°20.132 2°56.337 57.7 10.6 59 11.8
2012-04-05 07:27:44 51°20.14 2°56.357 58.2 10.6 58 11.8
2012-04-05 07:27:49 51°20.148 2°56.376 57.4 10.5 57 11.7
2012-04-05 07:27:53 51°20.154 2°56.392 58 10.6 58 12
2012-04-05 07:27:59 51°20.164 2°56.416 57.4 10.6 57 12
2012-04-05 07:28:04 51°20.171 2°56.436 57.6 10.7 59 12.4
2012-04-05 07:28:09 51°20.179 2°56.456 57.7 10.6 59 12.4
2012-04-05 07:28:13 51°20.185 2°56.472 58.6 10.6 59 12
2012-04-05 07:28:19 51°20.194 2°56.496 58.2 10.6 59 12.2
2012-04-05 07:28:24 51°20.202 2°56.516 58.5 10.6 59 12.3
2012-04-05 07:28:29 51°20.209 2°56.536 58.5 10.6 58 12.1
2012-04-05 07:28:33 51°20.216 2°56.552 57.4 10.6 56 11.7
2012-04-05 07:28:39 51°20.226 2°56.575 56.8 10.8 56 12.3
2012-04-05 07:28:44 51°20.234 2°56.595 56 10.7 57 12.1
2012-04-05 07:28:49 51°20.243 2°56.614 55.6 10.6 55 11.7
2012-04-05 07:28:53 51°20.249 2°56.63 55.9 10.6 56 12.4
2012-04-05 07:28:58 51°20.258 2°56.649 54.7 10.5 54 12.8
2012-04-05 07:29:04 51°20.268 2°56.672 54.7 10.7 54 12.1
2012-04-05 07:29:09 51°20.276 2°56.692 55.1 10.7 55 12
2012-04-05 07:29:13 51°20.283 2°56.707 55 10.7 55 12.1
2012-04-05 07:29:18 51°20.292 2°56.727 56 10.8 54 11.9
2012-04-05 07:29:24 51°20.302 2°56.751 56.4 10.9 55 11.7
2012-04-05 07:29:29 51°20.31 2°56.771 56.1 10.8 58 12.2
2012-04-05 07:29:33 51°20.317 2°56.787 56.2 10.8 56 12
2012-04-05 07:29:39 51°20.326 2°56.811 56.3 10.8 56 12.1
2012-04-05 07:29:44 51°20.335 2°56.83 56 10.7 57 12.4
2012-04-05 07:29:49 51°20.343 2°56.85 56.3 10.8 57 12.5
2012-04-05 07:29:53 51°20.35 2°56.867 56.4 10.8 56 11.6
2012-04-05 07:29:59 51°20.36 2°56.89 56.7 10.7 56 11.4
2012-04-05 07:30:04 51°20.368 2°56.91 57.1 10.8 55 11.7
2012-04-05 07:30:09 51°20.377 2°56.93 56 10.8 54 12
2012-04-05 07:30:13 51°20.383 2°56.946 54.7 10.7 54 11.3
2012-04-05 07:30:19 51°20.394 2°56.967 53.6 10.5 53 11.9
2012-04-05 07:30:24 51°20.403 2°56.986 53.8 10.5 54 11.9
2012-04-05 07:30:29 51°20.412 2°57.005 53.3 10.7 52 12.5
2012-04-05 07:30:33 51°20.418 2°57.021 53.2 10.6 56 12
2012-04-05 07:30:39 51°20.429 2°57.043 53.6 10.4 53 11.5
2012-04-05 07:30:44 51°20.437 2°57.061 53.7 10.5 54 11.9
2012-04-05 07:30:49 51°20.446 2°57.08 53.8 10.5 52 11.9
2012-04-05 07:30:53 51°20.453 2°57.095 53.8 10.6 54 11.9
2012-04-05 07:30:59 51°20.464 2°57.117 53.8 10.5 53 12.2
2012-04-05 07:31:04 51°20.472 2°57.137 54.4 10.6 54 11.8
2012-04-05 07:31:09 51°20.481 2°57.156 54.6 10.6 54 11.9
2012-04-05 07:31:13 51°20.488 2°57.171 54.3 10.6 54 12.2
2012-04-05 07:31:18 51°20.496 2°57.191 54.2 10.7 56 11.5
2012-04-05 07:31:24 51°20.506 2°57.213 54.3 10.6 55 11.9
2012-04-05 07:31:29 51°20.515 2°57.232 54.8 10.6 55 12.2
2012-04-05 07:31:33 51°20.522 2°57.247 54 10.5 53 12.3
2012-04-05 07:31:39 51°20.533 2°57.27 53.3 10.6 55 11.8
2012-04-05 07:31:44 51°20.542 2°57.288 53.7 10.7 50 11.8
2012-04-05 07:31:49 51°20.551 2°57.307 53.2 10.6 54 11.6
2012-04-05 07:31:53 51°20.558 2°57.322 53.5 10.6 51 11.7
2012-04-05 07:31:59 51°20.568 2°57.345 53.4 10.6 54 12.1
2012-04-05 07:32:04 51°20.578 2°57.363 53.8 10.7 51 11.8
2012-04-05 07:32:09 51°20.586 2°57.383 53.8 10.7 55 12.6
2012-04-05 07:32:13 51°20.594 2°57.397 53.1 10.6 52 12.2
2012-04-05 07:32:19 51°20.604 2°57.42 53 10.6 53 12
2012-04-05 07:32:24 51°20.613 2°57.438 52.3 10.5 52 12.2
2012-04-05 07:32:29 51°20.622 2°57.456 52.5 10.5 53 12.1
2012-04-05 07:32:33 51°20.63 2°57.47 52.3 10.6 50 11.6
2012-04-05 07:32:39 51°20.64 2°57.493 52.6 10.5 51 11.9
2012-04-05 07:32:44 51°20.649 2°57.511 52.5 10.5 52 12
2012-04-05 07:32:49 51°20.659 2°57.529 52 10.5 52 11.8
2012-04-05 07:32:53 51°20.666 2°57.544 52.6 10.6 52 11.9
2012-04-05 07:32:59 51°20.676 2°57.567 52.6 10.6 54 12.5
2012-04-05 07:33:04 51°20.686 2°57.585 53.1 10.6 52 12.3
2012-04-05 07:33:09 51°20.695 2°57.604 52.3 10.6 52 11.7
2012-04-05 07:33:13 51°20.702 2°57.619 53 10.7 53 11.9
2012-04-05 07:33:19 51°20.713 2°57.641 52.4 10.7 53 11.7
2012-04-05 07:33:24 51°20.722 2°57.66 52.9 10.8 53 12
2012-04-05 07:33:29 51°20.73 2°57.679 52.6 10.6 52 11.5
2012-04-05 07:33:33 51°20.737 2°57.694 53.1 10.7 55 12.1
2012-04-05 07:33:38 51°20.746 2°57.712 53.2 10.7 52 11.9
2012-04-05 07:33:44 51°20.757 2°57.735 52.5 10.5 54 11.8
2012-04-05 07:33:49 51°20.765 2°57.754 53 10.5 54 11.8
2012-04-05 07:33:53 51°20.772 2°57.769 54.5 10.6 54 11.5
2012-04-05 07:33:59 51°20.781 2°57.793 55.2 10.5 55 11.7
2012-04-05 07:34:04 51°20.789 2°57.812 56 10.4 58 11.4
2012-04-05 07:34:09 51°20.797 2°57.832 57.1 10.4 58 12.2
2012-04-05 07:34:13 51°20.803 2°57.847 57.9 10.6 58 12.2
2012-04-05 07:34:19 51°20.813 2°57.87 56.7 10.5 56 12
2012-04-05 07:34:24 51°20.821 2°57.89 56 10.5 57 12.1
2012-04-05 07:34:29 51°20.829 2°57.909 55.7 10.5 56 12
2012-04-05 07:34:33 51°20.835 2°57.925 55.9 10.4 57 12.4
2012-04-05 07:34:39 51°20.844 2°57.949 56.3 10.5 55 11.8
2012-04-05 07:34:44 51°20.851 2°57.969 57.1 10.4 57 11.8
2012-04-05 07:34:49 51°20.859 2°57.987 55 10.3 57 12
2012-04-05 07:34:53 51°20.865 2°58.002 55.7 10.4 56 12.5
2012-04-05 07:34:59 51°20.875 2°58.025 54.8 10.3 57 11.9
2012-04-05 07:35:04 51°20.883 2°58.044 56.7 10.4 55 12.1
2012-04-05 07:35:09 51°20.891 2°58.063 54.9 10.3 55 12.2
2012-04-05 07:35:13 51°20.897 2°58.078 55.2 10.4 58 12.5
2012-04-05 07:35:19 51°20.908 2°58.1 53.8 10.4 54 12.1
2012-04-05 07:35:24 51°20.916 2°58.119 54.4 10.4 55 12
2012-04-05 07:35:29 51°20.924 2°58.137 54.1 10.3 54 12
2012-04-05 07:35:33 51°20.931 2°58.152 54.5 10.4 57 12.1
2012-04-05 07:35:38 51°20.94 2°58.17 54.8 10.4 53 11.8
2012-04-05 07:35:44 51°20.949 2°58.194 55.7 10.4 58 11.8
2012-04-05 07:35:49 51°20.957 2°58.214 56.7 10.4 56 11.8
2012-04-05 07:35:53 51°20.963 2°58.229 56.3 10.5 57 11.8
2012-04-05 07:35:58 51°20.971 2°58.249 56.7 10.5 56 11.3
2012-04-05 07:36:04 51°20.98 2°58.272 57.6 10.4 59 11.6
2012-04-05 07:36:09 51°20.989 2°58.291 57.1 10.4 55 12
2012-04-05 07:36:13 51°20.995 2°58.306 55.6 10.4 57 11.9
2012-04-05 07:36:19 51°21.005 2°58.329 56 10.4 54 11.5
2012-04-05 07:36:24 51°21.013 2°58.348 54.9 10.3 54 11.3
2012-04-05 07:36:29 51°21.021 2°58.367 54.4 10.3 53 11.4
2012-04-05 07:36:33 51°21.028 2°58.381 53.5 10.2 52 11.5
2012-04-05 07:36:39 51°21.038 2°58.403 53.1 10.3 54 11.9
2012-04-05 07:36:44 51°21.047 2°58.421 52.9 10.4 51 12.3
2012-04-05 07:36:49 51°21.056 2°58.439 51.9 10.3 53 12
2012-04-05 07:36:53 51°21.064 2°58.453 52.3 10.4 49 11.5
2012-04-05 07:36:59 51°21.074 2°58.475 51.6 10.3 52 11.2
2012-04-05 07:37:04 51°21.083 2°58.492 51.9 10.4 50 11.7
2012-04-05 07:37:09 51°21.092 2°58.511 51.6 10.4 52 11.7
2012-04-05 07:37:13 51°21.099 2°58.524 51.6 10.3 50 11.3
2012-04-05 07:37:19 51°21.11 2°58.546 51.6 10.3 51 11.5
2012-04-05 07:37:24 51°21.119 2°58.563 51.6 10.3 50 11.2
2012-04-05 07:37:29 51°21.128 2°58.581 51.6 10.3 50 11.4
2012-04-05 07:37:33 51°21.135 2°58.595 51 10.4 50 11.5
2012-04-05 07:37:39 51°21.147 2°58.617 50.9 10.3 49 11.2
2012-04-05 07:37:44 51°21.156 2°58.635 51.3 10.3 52 11.8
2012-04-05 07:37:49 51°21.165 2°58.651 51.1 9.9 50 11.3
2012-04-05 07:37:53 51°21.171 2°58.664 51 9.4 51 11.9
2012-04-05 07:37:58 51°21.179 2°58.679 50.8 8.9 51 11.7
2012-04-05 07:38:04 51°21.188 2°58.697 51.1 8.4 52 11.9
2012-04-05 07:38:09 51°21.195 2°58.711 51.7 7.8 52 11.2
2012-04-05 07:38:13 51°21.199 2°58.722 52.4 7.6 54 11.4
2012-04-05 07:38:19 51°21.206 2°58.738 54.3 7.3 53 11.3
2012-04-05 07:38:24 51°21.211 2°58.751 54.5 7.2 60 12.2
2012-04-05 07:38:29 51°21.218 2°58.763 54.6 6.9 54 11.8
2012-04-05 07:38:33 51°21.221 2°58.775 55.5 6.6 59 11.4
2012-04-05 07:38:39 51°21.226 2°58.789 56 6.5 59 12.2
2012-04-05 07:38:44 51°21.231 2°58.8 57.3 6.1 61 12.1
2012-04-05 07:38:49 51°21.235 2°58.81 56.9 5.3 57 11.5
2012-04-05 07:38:53 51°21.237 2°58.818 56.8 4.9 64 12
2012-04-05 07:38:59 51°21.241 2°58.829 56.9 4.5 59 11.9
2012-04-05 07:39:04 51°21.244 2°58.837 56.7 4.1 65 11.9
2012-04-05 07:39:09 51°21.246 2°58.844 56.5 3.7 58 11.8
2012-04-05 07:39:13 51°21.248 2°58.85 56.1 3.6 69 12.6
2012-04-05 07:39:19 51°21.251 2°58.857 55.3 3.3 63 12
2012-04-05 07:39:24 51°21.252 2°58.864 56 3.1 61 11.5
2012-04-05 07:39:29 51°21.254 2°58.87 55.4 3 65 11.7
2012-04-05 07:39:33 51°21.256 2°58.874 55.2 3 60 11.3
2012-04-05 07:39:39 51°21.258 2°58.881 55.2 2.7 62 11.5
2012-04-05 07:39:44 51°21.259 2°58.886 54.8 2.4 59 11.2
2012-04-05 07:39:49 51°21.261 2°58.891 54.5 2.4 60 11.4
2012-04-05 07:39:53 51°21.262 2°58.894 53.2 2.4 59 11.7
2012-04-05 07:39:59 51°21.264 2°58.899 51.3 2.2 52 11.5
2012-04-05 07:40:04 51°21.266 2°58.903 48.4 2 58 11.7
2012-04-05 07:40:09 51°21.268 2°58.906 46.6 1.9 42 11.1
2012-04-05 07:40:13 51°21.269 2°58.91 45.3 2.1 58 11.4
2012-04-05 07:40:19 51°21.271 2°58.913 43.3 1.8 52 11.4
2012-04-05 07:40:24 51°21.273 2°58.914 40.8 1.7 28 11
2012-04-05 07:40:29 51°21.275 2°58.917 38.8 1.6 43 11.1
2012-04-05 07:40:33 51°21.276 2°58.918 38.2 1.6 39 11.9
2012-04-05 07:40:39 51°21.278 2°58.92 36.5 1.5 39 12.4
2012-04-05 07:40:44 51°21.28 2°58.922 34.9 1.4 23 11.9
2012-04-05 07:40:49 51°21.282 2°58.924 35.7 1.5 38 11.2
2012-04-05 07:40:53 51°21.283 2°58.926 36.8 1.7 33 11.4
2012-04-05 07:40:59 51°21.285 2°58.929 38.5 1.8 44 11.6
2012-04-05 07:41:04 51°21.287 2°58.931 40.2 2.1 33 11.4
2012-04-05 07:41:09 51°21.289 2°58.936 43 2.4 59 12.1
2012-04-05 07:41:13 51°21.291 2°58.938 45.2 2.3 45 11.7
2012-04-05 07:41:19 51°21.293 2°58.944 48.3 2.4 50 11.4
2012-04-05 07:41:24 51°21.295 2°58.949 51.6 2.7 64 11.8
2012-04-05 07:41:29 51°21.297 2°58.954 53.4 2.7 62 11.9
2012-04-05 07:41:33 51°21.299 2°58.958 53.7 2.8 58 11.8
2012-04-05 07:41:39 51°21.301 2°58.965 53.2 2.9 52 11.6
2012-04-05 07:41:44 51°21.304 2°58.971 51 3.1 58 11.8
2012-04-05 07:41:49 51°21.307 2°58.975 48.2 2.8 44 11.3
2012-04-05 07:41:53 51°21.309 2°58.979 44.3 2.9 47 11.6
2012-04-05 07:41:59 51°21.313 2°58.984 41.3 3 42 12.1
2012-04-05 07:42:04 51°21.317 2°58.988 37.7 3 33 11.6
2012-04-05 07:42:09 51°21.32 2°58.991 34.6 3 29 11.5
2012-04-05 07:42:13 51°21.323 2°58.993 31.7 3 25 11.8
2012-04-05 07:42:18 51°21.327 2°58.996 29.1 2.8 22 11.8
2012-04-05 07:42:24 51°21.331 2°58.999 27.9 2.6 21 11.8
2012-04-05 07:42:29 51°21.334 2°59 28.3 2.1 22 11.6
2012-04-05 07:42:33 51°21.336 2°59.001 29.1 1.9 15 11.7
2012-04-05 07:42:38 51°21.338 2°59.002 29.2 1.7 14 11.3
2012-04-05 07:42:44 51°21.34 2°59.002 29.4 1.3 9 11.5
2012-04-05 07:42:49 51°21.342 2°59.003 29.8 1 12 11.7
2012-04-05 07:42:53 51°21.342 2°59.003 30.9 1 1 11.3
2012-04-05 07:42:59 51°21.344 2°59.003 32 0.7 5 11.4
2012-04-05 07:43:03 51°21.344 2°59.003 33.2 0.6 10 11.6
2012-04-05 07:43:09 51°21.345 2°59.003 34.2 0.6 348 11.6
2012-04-05 07:43:13 51°21.345 2°59.003 34.8 0.4 356 11.7
2012-04-05 07:43:19 51°21.346 2°59.002 34.9 0.3 356 11.8
2012-04-05 07:43:24 51°21.346 2°59.002 35 0.3 323 11.8
2012-04-05 07:43:29 51°21.346 2°59.001 35.5 0.2 282 11.9
2012-04-05 07:43:33 51°21.346 2°59.001 35.5 0.5 277 11.7
2012-04-05 07:43:39 51°21.346 2°59 36.4 0.3 232 12
2012-04-05 07:43:44 51°21.345 2°58.999 37.1 0.6 186 12.7
2012-04-05 07:43:49 51°21.345 2°58.997 37.2 0.9 256 11.5
2012-04-05 07:43:53 51°21.344 2°58.998 39 0.8 216 11.2
2012-04-05 07:43:59 51°21.343 2°58.997 41.4 0.7 202 11.9
2012-04-05 07:44:04 51°21.343 2°58.995 41.5 0.8 210 12.4
2012-04-05 07:44:09 51°21.342 2°58.994 42.2 0.8 236 11.5
2012-04-05 07:44:13 51°21.341 2°58.994 43.6 0.8 215 11.3
2012-04-05 07:44:19 51°21.34 2°58.992 45.1 0.8 204 11.7
2012-04-05 07:44:24 51°21.339 2°58.991 45.6 0.8 228 11.5
2012-04-05 07:44:29 51°21.338 2°58.99 46.9 1.1 191 12.1
2012-04-05 07:44:33 51°21.337 2°58.988 48.9 1 234 12.2
2012-04-05 07:44:39 51°21.336 2°58.988 50.2 1 216 11.5
2012-04-05 07:44:44 51°21.334 2°58.987 52 1.2 194 11.9
2012-04-05 07:44:49 51°21.333 2°58.985 54.1 1.1 207 12.3
2012-04-05 07:44:53 51°21.332 2°58.984 55.2 1.1 213 11.8
2012-04-05 07:44:58 51°21.33 2°58.983 57.4 1.3 199 11.9
2012-04-05 07:45:04 51°21.328 2°58.983 59.4 1.2 199 12.1
2012-04-05 07:45:09 51°21.327 2°58.981 61.4 1.2 202 12
2012-04-05 07:45:13 51°21.326 2°58.98 63.9 1.2 201 12
2012-04-05 07:45:19 51°21.325 2°58.979 66.3 1 209 11.3
2012-04-05 07:45:23 51°21.323 2°58.979 69.1 1.1 197 11.4
2012-04-05 07:45:29 51°21.321 2°58.978 72.1 1.5 180 -999
2012-04-05 07:45:35 51°21.319 2°58.978 74.6 1.3 176 11.4
2012-04-05 07:45:40 51°21.318 2°58.978 77 1 166 11.8
2012-04-05 07:45:45 51°21.315 2°58.979 79.5 1.4 166 11.7
2012-04-05 07:45:50 51°21.314 2°58.98 80.6 1.6 145 12.2
2012-04-05 07:45:56 51°21.312 2°58.985 82.1 2 118 11.5
2012-04-05 07:46:01 51°21.312 2°58.99 81.5 2.3 106 11.8
2012-04-05 07:46:05 51°21.312 2°58.994 77.8 2.5 89 12
2012-04-05 07:46:10 51°21.312 2°59 72.4 2.9 82 11.7
2012-04-05 07:46:16 51°21.314 2°59.007 67.7 3.1 65 11.4
2012-04-05 07:46:21 51°21.317 2°59.013 59.4 3.2 55 11.5
2012-04-05 07:46:25 51°21.32 2°59.018 52.7 3.5 41 11.5
2012-04-05 07:46:30 51°21.324 2°59.024 45.2 3.7 37 11.8
2012-04-05 07:46:36 51°21.329 2°59.029 37.8 4 30 11.3
2012-04-05 07:46:41 51°21.335 2°59.032 31.3 4.4 23 11.2
2012-04-05 07:46:45 51°21.34 2°59.036 28.6 4.9 18 11.5
2012-04-05 07:46:50 51°21.347 2°59.04 26.7 5.3 20 12
2012-04-05 07:46:56 51°21.356 2°59.044 25 5.5 19 12.1
2012-04-05 07:47:01 51°21.363 2°59.048 24.7 5.7 19 11.7
2012-04-05 07:47:05 51°21.369 2°59.052 25.6 5.9 20 12.2
2012-04-05 07:47:10 51°21.377 2°59.057 26.4 6.1 24 11.7
2012-04-05 07:47:16 51°21.386 2°59.064 27.6 6.3 24 11.5
2012-04-05 07:47:21 51°21.394 2°59.07 28.8 6.4 26 11.6
2012-04-05 07:47:25 51°21.401 2°59.075 30.7 6.4 28 11.4
2012-04-05 07:47:30 51°21.408 2°59.082 32.3 6.4 31 11.1
2012-04-05 07:47:35 51°21.416 2°59.089 33.5 6.6 28 11.3
2012-04-05 07:47:41 51°21.426 2°59.098 33.5 6.6 30 12
2012-04-05 07:47:45 51°21.433 2°59.104 33.4 6.8 29 11.8
2012-04-05 07:47:50 51°21.441 2°59.112 33.4 7 30 12
2012-04-05 07:47:55 51°21.45 2°59.119 32.7 7 29 11.6
2012-04-05 07:48:01 51°21.46 2°59.128 32.7 7.2 30 11.2
2012-04-05 07:48:05 51°21.467 2°59.135 33.4 7.3 28 11.4
2012-04-05 07:48:10 51°21.476 2°59.143 32.9 7.5 29 11.5
2012-04-05 07:48:16 51°21.488 2°59.152 32.7 7.6 28 11.5
2012-04-05 07:48:21 51°21.497 2°59.16 32.3 7.7 28 11.2
2012-04-05 07:48:25 51°21.505 2°59.167 32 7.7 28 11.5
2012-04-05 07:48:30 51°21.514 2°59.174 32.3 7.7 27 11
2012-04-05 07:48:35 51°21.524 2°59.183 32 7.7 27 11.2
2012-04-05 07:48:41 51°21.536 2°59.192 32 7.8 27 11.5
2012-04-05 07:48:45 51°21.543 2°59.199 31.6 7.9 27 11.7
2012-04-05 07:48:50 51°21.553 2°59.206 30.6 8 28 12.4
2012-04-05 07:48:55 51°21.563 2°59.214 31.6 7.8 28 11.9
2012-04-05 07:49:00 51°21.572 2°59.223 31.8 7.9 29 11.6
2012-04-05 07:49:05 51°21.582 2°59.231 32 7.9 28 12.1
2012-04-05 07:49:10 51°21.591 2°59.239 32 7.6 29 11.3
2012-04-05 07:49:15 51°21.6 2°59.247 31.8 7.7 29 11.8
2012-04-05 07:49:20 51°21.61 2°59.255 32 7.4 27 12.4
2012-04-05 07:49:25 51°21.619 2°59.263 31.8 7.5 29 11.6
2012-04-05 07:49:30 51°21.628 2°59.27 32 7.6 27 11.5
2012-04-05 07:49:35 51°21.638 2°59.278 32 7.7 26 12
2012-04-05 07:49:40 51°21.647 2°59.287 31.6 7.6 28 12.2
2012-04-05 07:49:45 51°21.656 2°59.294 32 7.7 27 11.9
2012-04-05 07:49:50 51°21.666 2°59.302 31.8 7.8 29 11.7
2012-04-05 07:49:55 51°21.675 2°59.31 32.2 7.7 28 11.3
2012-04-05 07:50:00 51°21.685 2°59.319 33.1 7.9 29 11.5
2012-04-05 07:50:05 51°21.694 2°59.328 33.3 7.9 30 12.1
2012-04-05 07:50:10 51°21.704 2°59.337 33.7 7.8 30 11.7
2012-04-05 07:50:15 51°21.713 2°59.346 34.2 7.7 30 11.8
2012-04-05 07:50:20 51°21.722 2°59.355 34.6 7.6 31 11.9
2012-04-05 07:50:25 51°21.731 2°59.363 34.3 7.8 31 11.8
2012-04-05 07:50:30 51°21.741 2°59.372 34.5 7.9 30 11.7
2012-04-05 07:50:35 51°21.75 2°59.381 34.7 7.8 31 11.6
2012-04-05 07:50:40 51°21.759 2°59.39 35.3 7.8 32 11.7
2012-04-05 07:50:45 51°21.769 2°59.399 35.4 7.8 31 11.9
2012-04-05 07:50:50 51°21.778 2°59.408 34.9 7.7 32 11.2
2012-04-05 07:50:55 51°21.787 2°59.417 35.1 7.7 31 11.7
2012-04-05 07:51:00 51°21.796 2°59.427 35.6 7.7 32 11.6
2012-04-05 07:51:05 51°21.805 2°59.436 35.9 7.7 33 11.7
2012-04-05 07:51:10 51°21.814 2°59.445 36.3 7.8 32 11.8
2012-04-05 07:51:15 51°21.823 2°59.454 36 7.8 32 12.1
2012-04-05 07:51:20 51°21.833 2°59.463 35.1 7.8 33 11.5
2012-04-05 07:51:25 51°21.842 2°59.472 35.4 7.7 31 11
2012-04-05 07:51:30 51°21.851 2°59.481 35.1 7.7 30 11.7
2012-04-05 07:51:35 51°21.86 2°59.49 34.5 7.7 30 11.6
2012-04-05 07:51:40 51°21.87 2°59.498 33.6 7.6 29 12.1
2012-04-05 07:51:45 51°21.878 2°59.506 33.3 7.3 30 11.4
2012-04-05 07:51:50 51°21.888 2°59.514 33.5 7.4 28 11.7
2012-04-05 07:51:55 51°21.897 2°59.522 32.7 7.4 28 11.6
2012-04-05 07:52:00 51°21.906 2°59.529 31.7 7.5 25 11.9
2012-04-05 07:52:05 51°21.915 2°59.537 30.6 7.5 26 11.9
2012-04-05 07:52:10 51°21.925 2°59.543 30.1 7.5 24 11.8
2012-04-05 07:52:15 51°21.934 2°59.55 29.4 7.4 24 11.3
2012-04-05 07:52:20 51°21.943 2°59.557 28.8 7 25 11.9
2012-04-05 07:52:25 51°21.952 2°59.562 29.3 6.4 23 11.8
2012-04-05 07:52:30 51°21.959 2°59.568 28.8 5.6 24 11.2
2012-04-05 07:52:35 51°21.965 2°59.572 28.9 5 23 11.6
2012-04-05 07:52:40 51°21.971 2°59.577 29.4 4.6 23 12.1
2012-04-05 07:52:45 51°21.977 2°59.58 28.8 4.4 18 12.3
2012-04-05 07:52:49 51°21.981 2°59.583 28 3.9 24 12.3
2012-04-05 07:52:55 51°21.986 2°59.585 27.9 3.5 20 11.9
2012-04-05 07:53:00 51°21.991 2°59.588 28.2 3.3 13 11.6
2012-04-05 07:53:05 51°21.995 2°59.59 28.1 3 19 12.1
2012-04-05 07:53:09 51°21.997 2°59.592 27.5 2.7 18 12.2
2012-04-05 07:53:15 51°22.001 2°59.593 27.1 2 12 11.9
2012-04-05 07:53:20 51°22.003 2°59.593 26.9 1.6 7 11.8
2012-04-05 07:53:25 51°22.005 2°59.594 26.9 1.4 9 11.9
2012-04-05 07:53:29 51°22.007 2°59.594 27.1 1.3 4 11.9
2012-04-05 07:53:35 51°22.009 2°59.594 27.2 1.2 354 12.1
2012-04-05 07:53:40 51°22.01 2°59.594 27.5 0.8 355 12.1
2012-04-05 07:53:45 51°22.011 2°59.594 28.5 0.6 352 12.2
2012-04-05 07:53:49 51°22.011 2°59.593 30.3 0.4 358 12.3
2012-04-05 07:53:55 51°22.012 2°59.593 32.3 0.5 325 11.7
2012-04-05 07:54:00 51°22.012 2°59.592 34.1 0.4 308 11.6
2012-04-05 07:54:05 51°22.013 2°59.592 35.7 0.3 294 11.7
2012-04-05 07:54:09 51°22.013 2°59.592 36.6 0.5 298 11.9
2012-04-05 07:54:15 51°22.013 2°59.591 37.5 0.2 255 12.3
2012-04-05 07:54:20 51°22.013 2°59.59 38.3 0.2 225 12.2
2012-04-05 07:54:25 51°22.013 2°59.589 38.8 0.6 274 11.6
2012-04-05 07:54:29 51°22.013 2°59.589 40.2 0.4 231 11.8
2012-04-05 07:54:34 51°22.013 2°59.588 40.5 0.5 229 12
2012-04-05 07:54:40 51°22.012 2°59.587 40.7 0.6 232 12
2012-04-05 07:54:45 51°22.012 2°59.585 41.1 0.7 248 11.8
2012-04-05 07:54:49 51°22.011 2°59.585 42 0.5 219 12.2
2012-04-05 07:54:54 51°22.011 2°59.583 41.6 0.7 227 12.2
2012-04-05 07:55:00 51°22.01 2°59.582 41.5 0.8 236 11.7
2012-04-05 07:55:05 51°22.009 2°59.58 41.8 0.9 244 11.7
2012-04-05 07:55:09 51°22.008 2°59.58 42.1 0.7 214 12.1
2012-04-05 07:55:15 51°22.008 2°59.578 41.8 0.7 226 12.4
2012-04-05 07:55:20 51°22.007 2°59.577 41.5 0.9 251 12.1
2012-04-05 07:55:25 51°22.006 2°59.576 41.5 0.8 211 12.4
2012-04-05 07:55:29 51°22.006 2°59.574 41.1 1 252 11.9
2012-04-05 07:55:34 51°22.005 2°59.573 41.3 1 239 11.8
2012-04-05 07:55:40 51°22.004 2°59.571 41.4 0.9 227 12.1
2012-04-05 07:55:45 51°22.003 2°59.569 40.9 1 220 12.3
2012-04-05 07:55:49 51°22.003 2°59.567 40.5 1.2 245 12
2012-04-05 07:55:54 51°22.002 2°59.566 40.7 1.2 232 11.8
2012-04-05 07:56:00 51°22.001 2°59.564 40.8 1.1 227 11.8
2012-04-05 07:56:05 51°22 2°59.563 40.4 0.8 221 12
2012-04-05 07:56:09 51°22 2°59.562 39.9 0.5 270 12.1
2012-04-05 07:56:14 51°22 2°59.562 39.4 0.6 15 11.8
2012-04-05 07:56:19 51°22.002 2°59.564 39.3 1.6 24 11.8
2012-04-05 07:56:25 51°22.005 2°59.567 39 2.5 33 12.4
2012-04-05 07:56:29 51°22.008 2°59.569 37.4 3 28 12.1
2012-04-05 07:56:34 51°22.012 2°59.573 36.5 3.4 27 11.6
2012-04-05 07:56:39 51°22.017 2°59.578 35.7 4 23 11.6
2012-04-05 07:56:44 51°22.023 2°59.581 33 4.5 16 12
2012-04-05 07:56:49 51°22.03 2°59.583 26.1 4.9 8 12.1
2012-04-05 07:56:54 51°22.037 2°59.582 17.1 5.2 356 12
2012-04-05 07:56:59 51°22.045 2°59.58 7.9 5.9 346 12.1
2012-04-05 07:57:04 51°22.053 2°59.575 359.6 6.3 343 12.4
2012-04-05 07:57:09 51°22.062 2°59.571 355.2 6.8 344 12.3
2012-04-05 07:57:14 51°22.071 2°59.567 354.8 7 345 11.9
2012-04-05 07:57:19 51°22.081 2°59.563 356.5 7.2 347 12.4